createdAt,value
2023-04-08T00:02:24.147Z,11.63
2023-04-08T00:05:29.274Z,11.82
2023-04-08T00:08:33.934Z,14.63
2023-04-08T00:11:39.002Z,11.60
2023-04-08T00:14:43.663Z,10.82
2023-04-08T00:17:48.203Z,14.20
2023-04-08T00:20:52.794Z,14.80
2023-04-08T00:23:57.404Z,12.45
2023-04-08T00:27:02.771Z,12.27
2023-04-08T00:30:07.831Z,10.85
2023-04-08T00:33:12.523Z,13.38
2023-04-08T00:36:17.651Z,11.10
2023-04-08T00:39:22.333Z,12.48
2023-04-08T00:42:26.901Z,12.45
2023-04-08T00:45:31.616Z,11.25
2023-04-08T00:48:36.285Z,14.93
2023-04-08T00:51:40.871Z,16.05
2023-04-08T00:54:45.545Z,11.57
2023-04-08T00:57:50.277Z,12.98
2023-04-08T01:01:01.448Z,11.98
2023-04-08T01:04:14.371Z,12.13
2023-04-08T01:10:41.578Z,11.60
2023-04-08T01:13:47.656Z,10.40
2023-04-08T01:16:56.104Z,11.95
2023-04-08T01:20:04.527Z,13.48
2023-04-08T01:23:35.062Z,12.55
2023-04-08T01:26:40.953Z,12.95
2023-04-08T01:29:48.606Z,12.57
2023-04-08T01:32:55.535Z,13.85
2023-04-08T01:36:01.045Z,10.52
2023-04-08T01:39:06.702Z,10.77
2023-04-08T01:42:13.634Z,10.70
2023-04-08T01:45:18.709Z,11.52
2023-04-08T01:48:24.221Z,13.57
2023-04-08T01:51:31.768Z,15.70
2023-04-08T01:54:36.454Z,13.20
2023-04-08T01:57:44.275Z,12.15
2023-04-08T02:00:51.644Z,11.57
2023-04-08T02:03:58.713Z,12.20
2023-04-08T02:07:04.686Z,14.07
2023-04-08T02:10:09.543Z,8.95
2023-04-08T02:13:14.443Z,11.95
2023-04-08T02:16:49.703Z,10.52
2023-04-08T02:20:03.449Z,10.85
2023-04-08T02:23:13.304Z,10.35
2023-04-08T02:26:19.592Z,11.88
2023-04-08T02:29:26.457Z,10.32
2023-04-08T02:32:33.846Z,9.20
2023-04-08T02:35:41.385Z,9.75
2023-04-08T02:38:50.416Z,10.68
2023-04-08T02:41:55.206Z,13.63
2023-04-08T02:45:00.108Z,13.68
2023-04-08T02:48:06.402Z,10.85
2023-04-08T02:51:11.052Z,13.77
2023-04-08T02:54:15.892Z,12.20
2023-04-08T02:57:20.632Z,11.85
2023-04-08T03:00:25.423Z,11.02
2023-04-08T03:03:31.328Z,14.75
2023-04-08T03:06:35.987Z,13.43
2023-04-08T03:09:40.660Z,10.93
2023-04-08T03:12:45.191Z,9.30
2023-04-08T03:15:49.855Z,11.45
2023-04-08T03:18:54.522Z,13.90
2023-04-08T03:21:59.096Z,11.07
2023-04-08T03:25:04.446Z,12.90
2023-04-08T03:28:09.046Z,13.65
2023-04-08T03:31:13.575Z,12.40
2023-04-08T03:34:18.117Z,11.60
2023-04-08T03:37:22.772Z,10.20
2023-04-08T03:40:27.420Z,12.77
2023-04-08T03:43:32.770Z,13.07
2023-04-08T03:46:37.487Z,9.85
2023-04-08T03:49:42.248Z,12.57
2023-04-08T03:52:46.754Z,11.70
2023-04-08T03:55:51.332Z,13.48
2023-04-08T03:58:56.298Z,9.35
2023-04-08T04:02:00.936Z,15.35
2023-04-08T04:05:05.645Z,10.90
2023-04-08T04:08:10.439Z,11.90
2023-04-08T04:11:15.078Z,10.93
2023-04-08T04:14:19.664Z,13.45
2023-04-08T04:17:24.285Z,14.07
2023-04-08T04:20:30.459Z,12.05
2023-04-08T04:23:35.092Z,11.15
2023-04-08T04:26:41.703Z,12.25
2023-04-08T04:29:46.337Z,9.55
2023-04-08T04:32:50.965Z,10.23
2023-04-08T04:35:56.201Z,12.48
2023-04-08T04:39:01.030Z,12.10
2023-04-08T04:42:06.639Z,9.90
2023-04-08T04:45:11.320Z,13.00
2023-04-08T04:48:16.210Z,9.07
2023-04-08T04:51:21.251Z,7.50
2023-04-08T04:54:25.992Z,9.20
2023-04-08T04:57:30.475Z,6.78
2023-04-08T05:00:35.418Z,7.30
2023-04-08T05:03:40.022Z,6.57
2023-04-08T05:06:44.668Z,7.20
2023-04-08T05:09:49.170Z,4.72
2023-04-08T05:12:53.732Z,7.20
2023-04-08T05:15:58.284Z,7.10
2023-04-08T05:19:02.889Z,5.90
2023-04-08T05:22:07.418Z,6.45
2023-04-08T05:25:11.985Z,8.25
2023-04-08T05:28:16.460Z,7.35
2023-04-08T05:31:21.140Z,7.20
2023-04-08T05:34:25.783Z,5.93
2023-04-08T05:37:30.547Z,8.88
2023-04-08T05:40:35.269Z,7.35
2023-04-08T05:43:39.752Z,8.15
2023-04-08T05:46:44.357Z,6.40
2023-04-08T05:49:50.205Z,8.80
2023-04-08T05:52:55.711Z,6.70
2023-04-08T05:56:00.253Z,8.23
2023-04-08T05:59:04.888Z,7.85
2023-04-08T06:02:09.975Z,7.25
2023-04-08T06:05:14.665Z,8.18
2023-04-08T06:08:19.545Z,6.22
2023-04-08T06:11:24.005Z,7.07
2023-04-08T06:14:28.532Z,7.75
2023-04-08T06:17:33.214Z,7.88
2023-04-08T06:20:37.854Z,4.65
2023-04-08T06:23:42.715Z,6.03
2023-04-08T06:26:47.933Z,4.93
2023-04-08T06:29:53.354Z,5.75
2023-04-08T06:32:57.954Z,5.07
2023-04-08T06:36:06.609Z,4.13
2023-04-08T06:39:11.254Z,5.47
2023-04-08T06:42:15.803Z,6.25
2023-04-08T06:45:39.676Z,7.15
2023-04-08T06:48:44.223Z,7.20
2023-04-08T06:51:48.969Z,9.23
2023-04-08T06:54:53.465Z,7.43
2023-04-08T06:57:58.183Z,7.72
2023-04-08T07:01:03.404Z,8.55
2023-04-08T07:04:08.064Z,8.57
2023-04-08T07:07:12.791Z,6.88
2023-04-08T07:10:17.461Z,9.13
2023-04-08T07:13:21.974Z,12.10
2023-04-08T07:16:26.560Z,10.88
2023-04-08T07:19:31.573Z,8.90
2023-04-08T07:22:36.235Z,9.57
2023-04-08T07:25:40.799Z,11.95
2023-04-08T07:28:45.391Z,11.30
2023-04-08T07:31:49.996Z,8.73
2023-04-08T07:34:54.588Z,9.65
2023-04-08T07:37:59.204Z,9.68
2023-04-08T07:41:03.858Z,8.55
2023-04-08T07:44:08.370Z,10.38
2023-04-08T07:47:13.110Z,9.43
2023-04-08T07:50:17.702Z,10.52
2023-04-08T07:53:23.951Z,9.40
2023-04-08T07:56:28.585Z,10.13
2023-04-08T07:59:33.313Z,12.45
2023-04-08T08:02:38.081Z,9.98
2023-04-08T08:05:42.943Z,13.98
2023-04-08T08:08:47.747Z,14.68
2023-04-08T08:11:52.333Z,13.52
2023-04-08T08:14:58.998Z,12.60
2023-04-08T08:18:03.828Z,15.20
2023-04-08T08:21:09.720Z,15.73
2023-04-08T08:24:14.290Z,14.88
2023-04-08T08:27:18.908Z,16.10
2023-04-08T08:30:23.503Z,18.30
2023-04-08T08:33:28.362Z,20.65
2023-04-08T08:36:34.646Z,17.30
2023-04-08T08:39:39.591Z,20.63
2023-04-08T08:42:55.030Z,19.33
2023-04-08T08:45:59.795Z,19.48
2023-04-08T08:49:04.437Z,17.02
2023-04-08T08:52:09.415Z,18.90
2023-04-08T08:55:31.596Z,18.40
2023-04-08T08:58:39.273Z,24.38
2023-04-08T09:01:43.960Z,19.55
2023-04-08T09:05:01.338Z,21.60
2023-04-08T09:08:22.869Z,22.40
2023-04-08T09:11:27.423Z,20.25
2023-04-08T09:14:32.798Z,20.48
2023-04-08T09:17:39.283Z,19.33
2023-04-08T09:20:53.996Z,20.58
2023-04-08T09:23:58.626Z,24.38
2023-04-08T09:27:04.356Z,17.17
2023-04-08T09:30:15.811Z,21.67
2023-04-08T09:33:20.397Z,22.25
2023-04-08T09:36:28.809Z,18.85
2023-04-08T09:39:33.541Z,18.40
2023-04-08T09:42:41.214Z,19.55
2023-04-08T09:45:47.474Z,23.92
2023-04-08T09:49:28.981Z,18.67
2023-04-08T09:52:40.125Z,20.33
2023-04-08T09:55:50.502Z,18.13
2023-04-08T09:58:59.814Z,21.98
2023-04-08T10:02:11.326Z,20.10
2023-04-08T10:05:17.312Z,19.48
2023-04-08T10:08:23.799Z,20.80
2023-04-08T10:11:30.286Z,27.13
2023-04-08T10:14:35.185Z,23.75
2023-04-08T10:17:39.741Z,21.70
2023-04-08T10:20:46.714Z,23.85
2023-04-08T10:23:59.363Z,23.17
2023-04-08T10:27:06.450Z,21.33
2023-04-08T10:30:26.054Z,27.73
2023-04-08T10:33:30.530Z,22.90
2023-04-08T10:36:35.280Z,26.52
2023-04-08T10:39:39.916Z,24.00
2023-04-08T10:42:44.525Z,23.92
2023-04-08T10:45:51.625Z,25.38
2023-04-08T10:49:02.185Z,28.10
2023-04-08T10:52:08.038Z,20.02
2023-04-08T10:55:12.885Z,27.00
2023-04-08T10:58:17.466Z,22.35
2023-04-08T11:01:22.869Z,22.63
2023-04-08T11:04:27.723Z,32.47
2023-04-08T11:07:33.095Z,24.45
2023-04-08T11:10:39.129Z,22.88
2023-04-08T11:13:53.402Z,20.45
2023-04-08T11:17:00.363Z,22.92
2023-04-08T11:20:06.525Z,21.15
2023-04-08T11:23:14.860Z,22.95
2023-04-08T11:26:21.012Z,23.65
2023-04-08T11:29:25.526Z,23.13
2023-04-08T11:32:30.361Z,20.17
2023-04-08T11:35:35.504Z,19.95
2023-04-08T11:38:43.586Z,23.30
2023-04-08T11:41:48.226Z,24.80
2023-04-08T11:44:53.013Z,25.23
2023-04-08T11:47:57.715Z,27.25
2023-04-08T11:51:04.520Z,25.00
2023-04-08T11:54:31.006Z,25.38
2023-04-08T11:57:36.350Z,22.75
2023-04-08T12:00:41.158Z,22.50
2023-04-08T12:04:04.773Z,23.42
2023-04-08T12:07:10.700Z,24.20
2023-04-08T12:10:15.404Z,18.65
2023-04-08T12:13:20.014Z,22.45
2023-04-08T12:16:24.856Z,23.02
2023-04-08T12:19:30.149Z,19.75
2023-04-08T12:22:36.229Z,22.65
2023-04-08T12:25:40.775Z,21.17
2023-04-08T12:28:46.215Z,23.25
2023-04-08T12:31:51.861Z,20.80
2023-04-08T12:34:56.469Z,24.30
2023-04-08T12:38:01.155Z,20.55
2023-04-08T12:41:05.686Z,21.02
2023-04-08T12:44:10.971Z,21.55
2023-04-08T12:47:15.832Z,21.17
2023-04-08T12:50:20.815Z,23.73
2023-04-08T12:53:25.426Z,22.15
2023-04-08T12:56:31.148Z,23.88
2023-04-08T12:59:36.005Z,21.35
2023-04-08T13:02:42.198Z,17.75
2023-04-08T13:05:46.926Z,19.55
2023-04-08T13:08:51.798Z,21.52
2023-04-08T13:11:56.532Z,19.85
2023-04-08T13:15:01.550Z,22.77
2023-04-08T13:18:06.300Z,18.55
2023-04-08T13:21:11.033Z,21.95
2023-04-08T13:24:16.004Z,18.45
2023-04-08T13:27:20.599Z,28.92
2023-04-08T13:30:25.193Z,37.55
2023-04-08T13:33:30.196Z,25.20
2023-04-08T13:36:35.340Z,20.90
2023-04-08T13:39:41.274Z,17.13
2023-04-08T13:42:45.759Z,7.38
2023-04-08T13:45:50.392Z,10.07
2023-04-08T13:48:55.212Z,8.85
2023-04-08T13:51:59.793Z,8.10
2023-04-08T13:55:04.850Z,6.78
2023-04-08T13:58:21.142Z,6.80
2023-04-08T14:01:28.009Z,5.15
2023-04-08T14:04:32.906Z,4.28
2023-04-08T14:07:37.446Z,4.53
2023-04-08T14:10:42.537Z,4.43
2023-04-08T14:13:47.093Z,4.55
2023-04-08T14:16:51.899Z,6.13
2023-04-08T14:19:56.682Z,5.75
2023-04-08T14:23:01.503Z,4.97
2023-04-08T14:26:06.362Z,4.35
2023-04-08T14:29:11.731Z,4.40
2023-04-08T14:32:17.056Z,8.18
2023-04-08T14:35:21.800Z,11.45
2023-04-08T14:38:26.618Z,6.65
2023-04-08T14:41:31.531Z,6.20
2023-04-08T14:44:36.069Z,13.18
2023-04-08T14:47:40.779Z,8.43
2023-04-08T14:50:46.261Z,5.25
2023-04-08T14:53:50.979Z,9.27
2023-04-08T14:56:56.208Z,7.70
2023-04-08T15:00:00.809Z,5.22
2023-04-08T15:03:05.750Z,4.25
2023-04-08T15:06:10.807Z,4.32
2023-04-08T15:09:15.460Z,11.93
2023-04-08T15:12:20.115Z,10.35
2023-04-08T15:15:24.658Z,4.35
2023-04-08T15:18:29.336Z,5.53
2023-04-08T15:21:33.898Z,5.30
2023-04-08T15:24:38.604Z,5.25
2023-04-08T15:27:43.357Z,5.20
2023-04-08T15:30:49.310Z,3.80
2023-04-08T15:33:54.264Z,4.03
2023-04-08T15:36:59.655Z,4.20
2023-04-08T15:40:04.417Z,4.93
2023-04-08T15:43:10.860Z,3.45
2023-04-08T15:46:19.560Z,3.45
2023-04-08T15:49:24.494Z,2.60
2023-04-08T15:52:29.063Z,8.10
2023-04-08T15:55:40.714Z,3.00
2023-04-08T15:58:46.082Z,3.15
2023-04-08T16:01:50.902Z,2.85
2023-04-08T16:04:55.575Z,4.97
2023-04-08T16:08:00.131Z,2.90
2023-04-08T16:11:06.477Z,2.55
2023-04-08T16:14:12.107Z,2.55
2023-04-08T16:17:16.854Z,2.03
2023-04-08T16:20:21.833Z,2.38
2023-04-08T16:23:26.494Z,2.78
2023-04-08T16:26:31.150Z,2.83
2023-04-08T16:29:35.852Z,2.80
2023-04-08T16:32:41.778Z,2.95
2023-04-08T16:35:46.522Z,2.92
2023-04-08T16:38:51.341Z,2.50
2023-04-08T16:41:55.957Z,3.15
2023-04-08T16:45:01.206Z,3.55
2023-04-08T16:48:06.543Z,2.72
2023-04-08T16:51:11.480Z,2.95
2023-04-08T16:54:16.324Z,3.67
2023-04-08T16:57:21.220Z,3.45
2023-04-08T17:00:25.951Z,3.65
2023-04-08T17:03:30.640Z,2.55
2023-04-08T17:06:36.113Z,3.00
2023-04-08T17:09:40.933Z,5.05
2023-04-08T17:12:46.066Z,2.40
2023-04-08T17:15:51.100Z,3.50
2023-04-08T17:18:55.722Z,3.58
2023-04-08T17:22:00.205Z,3.33
2023-04-08T17:25:05.017Z,2.88
2023-04-08T17:28:09.597Z,3.28
2023-04-08T17:31:14.212Z,3.17
2023-04-08T17:34:19.086Z,4.25
2023-04-08T17:37:23.563Z,3.17
2023-04-08T17:40:28.182Z,3.92
2023-04-08T17:43:32.706Z,3.55
2023-04-08T17:46:37.304Z,3.42
2023-04-08T17:49:42.080Z,4.00
2023-04-08T17:52:47.757Z,5.40
2023-04-08T17:55:52.406Z,4.43
2023-04-08T17:58:56.877Z,4.78
2023-04-08T18:02:01.545Z,4.65
2023-04-08T18:05:07.660Z,6.50
2023-04-08T18:08:12.500Z,5.25
2023-04-08T18:11:17.295Z,5.65
2023-04-08T18:14:21.909Z,6.75
2023-04-08T18:17:27.945Z,8.70
2023-04-08T18:20:38.538Z,7.13
2023-04-08T18:23:43.118Z,6.32
2023-04-08T18:26:54.342Z,8.70
2023-04-08T18:30:02.536Z,8.25
2023-04-08T18:33:07.645Z,8.55
2023-04-08T18:36:12.759Z,8.68
2023-04-08T18:39:18.203Z,11.88
2023-04-08T18:42:22.788Z,13.60
2023-04-08T18:45:28.139Z,12.15
2023-04-08T18:48:33.605Z,10.27
2023-04-08T18:54:43.221Z,10.43
2023-04-08T18:57:48.117Z,11.65
2023-04-08T19:00:53.140Z,11.45
2023-04-08T19:03:58.220Z,12.05
2023-04-08T19:07:03.181Z,10.90
2023-04-08T19:10:08.497Z,10.27
2023-04-08T19:13:13.286Z,13.25
2023-04-08T19:16:17.802Z,16.02
2023-04-08T19:19:22.401Z,13.68
2023-04-08T19:22:27.272Z,12.05
2023-04-08T19:25:31.926Z,13.32
2023-04-08T19:28:37.015Z,12.90
2023-04-08T19:31:41.689Z,12.68
2023-04-08T19:34:46.334Z,11.60
2023-04-08T19:37:51.172Z,13.55
2023-04-08T19:40:55.767Z,13.30
2023-04-08T19:44:00.307Z,13.07
2023-04-08T19:47:05.044Z,13.52
2023-04-08T19:50:10.307Z,13.43
2023-04-08T19:53:15.163Z,13.50
2023-04-08T19:56:19.829Z,11.77
2023-04-08T19:59:24.875Z,14.05
2023-04-08T20:02:29.578Z,15.30
2023-04-08T20:05:34.180Z,12.82
2023-04-08T20:08:38.901Z,13.20
2023-04-08T20:11:43.832Z,14.00
2023-04-08T20:14:48.379Z,12.48
2023-04-08T20:17:53.332Z,14.27
2023-04-08T20:20:57.890Z,15.65
2023-04-08T20:24:02.882Z,16.00
2023-04-08T20:27:07.547Z,12.25
2023-04-08T20:30:13.077Z,13.68
2023-04-08T20:33:17.734Z,13.63
2023-04-08T20:36:25.238Z,13.27
2023-04-08T20:39:31.062Z,13.90
2023-04-08T20:42:35.611Z,15.88
2023-04-08T20:45:40.268Z,15.48
2023-04-08T20:48:44.967Z,16.83
2023-04-08T20:51:49.784Z,20.80
2023-04-08T20:54:54.378Z,12.73
2023-04-08T20:58:00.504Z,15.13
2023-04-08T21:01:05.173Z,15.27
2023-04-08T21:04:09.794Z,13.90
2023-04-08T21:07:14.286Z,15.98
2023-04-08T21:10:18.957Z,14.60
2023-04-08T21:13:23.533Z,13.32
2023-04-08T21:16:29.227Z,15.15
2023-04-08T21:19:33.809Z,15.02
2023-04-08T21:22:38.519Z,17.45
2023-04-08T21:25:43.349Z,22.35
2023-04-08T21:28:49.962Z,18.95
2023-04-08T21:31:54.970Z,14.52
2023-04-08T21:35:00.124Z,15.63
2023-04-08T21:38:04.688Z,15.90
2023-04-08T21:41:09.258Z,20.95
2023-04-08T21:44:15.558Z,11.52
2023-04-08T21:47:20.289Z,10.13
2023-04-08T21:50:24.868Z,11.70
2023-04-08T21:53:29.505Z,11.43
2023-04-08T21:56:34.121Z,11.25
2023-04-08T21:59:38.652Z,11.98
2023-04-08T22:02:43.830Z,9.77
2023-04-08T22:05:48.611Z,10.38
2023-04-08T22:08:53.459Z,11.93
2023-04-08T22:11:58.157Z,9.27
2023-04-08T22:15:03.873Z,13.93
2023-04-08T22:18:08.618Z,11.43
2023-04-08T22:21:13.522Z,14.23
2023-04-08T22:24:21.250Z,12.55
2023-04-08T22:27:28.141Z,12.93
2023-04-08T22:30:32.748Z,11.60
2023-04-08T22:33:38.090Z,15.90
2023-04-08T22:36:42.708Z,15.27
2023-04-08T22:39:47.246Z,17.33
2023-04-08T22:42:51.958Z,15.20
2023-04-08T22:45:56.594Z,17.70
2023-04-08T22:49:01.620Z,15.05
2023-04-08T22:52:06.085Z,14.80
2023-04-08T22:55:11.149Z,15.77
2023-04-08T22:58:15.892Z,15.98
2023-04-08T23:01:23.270Z,18.85
2023-04-08T23:04:27.902Z,17.88
2023-04-08T23:07:32.620Z,16.08
2023-04-08T23:10:37.403Z,17.55
2023-04-08T23:13:42.207Z,16.48
2023-04-08T23:16:46.723Z,15.68
2023-04-08T23:19:51.465Z,19.42
2023-04-08T23:22:56.156Z,15.07
2023-04-08T23:26:00.766Z,14.60
2023-04-08T23:29:05.364Z,19.85
2023-04-08T23:32:10.049Z,16.30
2023-04-08T23:35:16.362Z,18.77
2023-04-08T23:38:21.056Z,17.80
2023-04-08T23:41:26.118Z,15.40
2023-04-08T23:44:30.700Z,16.33
2023-04-08T23:47:35.487Z,12.90
2023-04-08T23:50:40.558Z,15.20
2023-04-08T23:53:45.630Z,18.45
2023-04-08T23:56:50.330Z,13.27
2023-04-08T23:59:54.902Z,16.17
